Time;durP1;ratioP1;P1;durP2;ratioP2;P2;SDS_P1;SDS_P2;PMS_P1;PMS_P2;Temp;Humidity;BMP_temperature;BMP_pressure;BME280_temperature;BME280_humidity;BME280_pressure;Samples;Min_cycle;Max_cycle;Signal;HPM_P1;HPM_P2
2023/12/07 00:01:06;;;;;;;5.23;4.70;;;15.60;58.70;16.50;101140.00;;;;5050289;28;20657;-42
2023/12/07 00:03:32;;;;;;;5.20;4.70;;;15.50;58.70;16.50;101134.00;;;;5049942;28;20176;-42
2023/12/07 00:05:57;;;;;;;5.10;4.70;;;15.50;58.70;16.50;101131.00;;;;5050076;28;20243;-42
2023/12/07 00:08:23;;;;;;;4.90;4.50;;;15.50;58.70;16.50;101150.00;;;;5050466;28;20265;-42
2023/12/07 00:10:50;;;;;;;5.03;4.63;;;15.50;58.70;16.40;101135.00;;;;5051272;28;20222;-42
2023/12/07 00:13:16;;;;;;;4.93;4.53;;;15.50;58.70;16.40;101145.00;;;;5050320;28;20224;-42
2023/12/07 00:15:42;;;;;;;5.23;4.83;;;15.50;58.70;16.40;101136.00;;;;5050307;28;20307;-42
2023/12/07 00:18:08;;;;;;;5.30;4.80;;;15.40;58.60;16.40;101133.00;;;;5049920;28;20213;-42
2023/12/07 00:20:34;;;;;;;5.23;4.80;;;15.40;58.60;16.40;101130.00;;;;5050046;28;20236;-42
2023/12/07 00:23:00;;;;;;;4.83;4.33;;;15.40;58.60;16.30;101128.00;;;;5049947;28;20224;-44
2023/12/07 00:25:25;;;;;;;5.63;4.53;;;15.40;59.30;16.40;101124.00;;;;5048681;28;20202;-43
2023/12/07 00:27:52;;;;;;;4.90;4.50;;;15.40;58.60;16.30;101125.00;;;;5050145;28;20190;-43
2023/12/07 00:30:17;;;;;;;5.47;4.97;;;15.40;58.60;16.30;101137.00;;;;5049754;28;20194;-43
2023/12/07 00:32:43;;;;;;;5.10;4.60;;;15.30;58.50;16.30;101130.00;;;;5049644;28;20789;-43
2023/12/07 00:35:10;;;;;;;5.23;4.73;;;15.30;58.50;16.30;101130.00;;;;5049094;28;20738;-42
2023/12/07 00:37:36;;;;;;;5.27;4.77;;;15.30;58.60;16.30;101125.00;;;;5049761;28;20213;-43
2023/12/07 00:40:02;;;;;;;4.90;4.50;;;15.30;58.50;16.20;101131.00;;;;5049463;28;20186;-44
2023/12/07 00:42:27;;;;;;;5.13;4.50;;;15.30;58.50;16.20;101124.00;;;;5048412;28;20175;-44
2023/12/07 00:44:54;;;;;;;5.33;4.83;;;15.20;58.40;16.20;101129.00;;;;5049443;28;20205;-43
2023/12/07 00:47:19;;;;;;;5.43;4.93;;;15.30;58.50;16.20;101123.00;;;;5049524;28;20177;-42
2023/12/07 00:49:45;;;;;;;5.33;4.83;;;15.20;58.40;16.20;101130.00;;;;5048150;28;20198;-43
2023/12/07 00:52:11;;;;;;;5.00;4.60;;;15.20;58.50;16.20;101137.00;;;;5049378;28;20178;-43
2023/12/07 00:54:36;;;;;;;5.73;4.77;;;15.20;58.40;16.10;101139.00;;;;5049427;28;20585;-43
2023/12/07 00:57:02;;;;;;;5.03;4.63;;;15.20;58.40;16.10;101145.00;;;;5049428;28;20289;-43
2023/12/07 00:59:33;;;;;;;5.10;4.60;;;15.20;58.50;16.10;101143.00;;;;5049669;28;20269;-43
2023/12/07 01:02:05;;;;;;;4.97;4.57;;;15.10;58.40;16.10;101142.00;;;;5048704;28;20190;-43
2023/12/07 01:04:31;;;;;;;5.10;4.60;;;15.10;58.40;16.10;101145.00;;;;5047187;28;20702;-43
2023/12/07 01:06:57;;;;;;;5.00;4.60;;;15.10;58.40;16.10;101157.00;;;;5048092;28;20182;-42
2023/12/07 01:09:24;;;;;;;5.20;4.63;;;15.00;58.40;16.00;101153.00;;;;5047617;28;20695;-43
2023/12/07 01:11:49;;;;;;;5.00;4.50;;;15.10;58.50;16.00;101153.00;;;;5048141;28;20269;-43
2023/12/07 01:14:16;;;;;;;4.80;4.40;;;15.10;58.50;16.00;101138.00;;;;5047399;28;20289;-43
2023/12/07 01:16:42;;;;;;;4.80;4.40;;;15.00;58.50;16.00;101150.00;;;;5047740;28;20759;-43
2023/12/07 01:19:08;;;;;;;5.20;4.70;;;15.00;58.40;16.00;101142.00;;;;5047670;28;20391;-43
2023/12/07 01:21:34;;;;;;;5.00;4.60;;;15.00;58.50;16.00;101146.00;;;;5048097;28;20184;-43
2023/12/07 01:24:00;;;;;;;5.07;4.67;;;15.00;58.50;15.90;101145.00;;;;5047526;28;20732;-43
2023/12/07 01:26:26;;;;;;;5.50;5.00;;;15.00;58.50;15.90;101147.00;;;;5039936;28;20206;-43
2023/12/07 01:28:51;;;;;;;4.93;4.53;;;14.90;58.40;15.90;101145.00;;;;5047688;28;20807;-43
2023/12/07 01:31:17;;;;;;;5.00;4.60;;;14.90;58.40;15.90;101155.00;;;;5047879;28;20251;-43
2023/12/07 01:33:45;;;;;;;4.83;4.43;;;14.90;58.50;15.90;101145.00;;;;5047398;28;20183;-43
2023/12/07 01:36:12;;;;;;;5.40;4.90;;;14.90;58.40;15.90;101149.00;;;;5047615;28;20210;-43
2023/12/07 01:38:37;;;;;;;5.23;4.83;;;14.80;58.40;15.80;101143.00;;;;5047776;28;20270;-43
2023/12/07 01:41:04;;;;;;;4.80;4.40;;;14.80;58.40;15.80;101155.00;;;;5047809;28;20174;-43
2023/12/07 01:43:29;;;;;;;5.43;4.50;;;14.80;58.40;15.80;101150.00;;;;5047652;28;20261;-43
2023/12/07 01:45:57;;;;;;;5.10;4.60;;;14.80;58.40;15.80;101145.00;;;;5047424;28;20277;-42
2023/12/07 01:48:23;;;;;;;5.30;4.90;;;14.80;58.50;15.80;101142.00;;;;5030011;28;20201;-43
2023/12/07 01:50:49;;;;;;;5.57;5.13;;;14.80;58.50;15.80;101143.00;;;;5029993;28;20660;-42
2023/12/07 01:53:15;;;;;;;4.87;4.47;;;14.80;58.50;15.70;101146.00;;;;5047466;28;20182;-42
2023/12/07 01:55:41;;;;;;;5.00;4.60;;;14.80;58.50;15.70;101152.00;;;;5047483;28;20218;-43
2023/12/07 01:58:06;;;;;;;5.23;4.83;;;14.70;58.50;15.70;101147.00;;;;5046269;28;20178;-43
2023/12/07 02:00:33;;;;;;;4.97;4.47;;;14.70;58.60;15.70;101160.00;;;;5045879;28;20552;-42
2023/12/07 02:02:58;;;;;;;5.33;4.83;;;14.70;58.60;15.70;101145.00;;;;5046175;28;20372;-42
2023/12/07 02:05:24;;;;;;;5.00;4.60;;;14.70;58.50;15.70;101156.00;;;;5046064;28;20684;-43
2023/12/07 02:07:50;;;;;;;5.37;4.50;;;14.70;58.50;15.70;101157.00;;;;5047784;28;20182;-42
2023/12/07 02:10:16;;;;;;;4.90;4.50;;;14.70;58.60;15.60;101166.00;;;;5047411;28;20189;-43
2023/12/07 02:12:42;;;;;;;4.97;4.47;;;14.70;58.60;15.60;101169.00;;;;5047376;28;20182;-43
2023/12/07 02:15:08;;;;;;;4.80;4.40;;;14.70;58.60;15.60;101172.00;;;;5029227;28;20210;-43
2023/12/07 02:17:43;;;;;;;4.67;4.27;;;14.60;58.50;15.60;101174.00;;;;5029738;28;20292;-43
2023/12/07 02:20:24;;;;;;;4.87;4.47;;;14.60;58.70;15.60;101170.00;;;;5049123;28;20193;-43
2023/12/07 02:22:55;;;;;;;4.50;4.10;;;14.70;58.70;15.60;101176.00;;;;5050103;28;20759;-43
2023/12/07 02:25:26;;;;;;;4.60;4.20;;;14.60;58.70;15.50;101181.00;;;;5050955;28;20572;-42
2023/12/07 02:27:52;;;;;;;4.33;3.93;;;14.60;58.60;15.50;101181.00;;;;5049846;28;20191;-42
2023/12/07 02:30:17;;;;;;;4.90;4.50;;;14.50;58.50;15.50;101183.00;;;;5050795;28;20199;-42
2023/12/07 02:32:44;;;;;;;4.40;4.00;;;14.60;58.60;15.50;101199.00;;;;5050792;28;20572;-42
2023/12/07 02:35:14;;;;;;;4.20;3.90;;;14.50;58.60;15.50;101189.00;;;;5049122;28;20213;-43
2023/12/07 02:37:45;;;;;;;4.67;3.90;;;14.50;58.60;15.50;101187.00;;;;5033628;28;20198;-43
2023/12/07 02:40:11;;;;;;;4.80;4.40;;;14.50;58.60;15.50;101182.00;;;;5049090;28;20201;-44
2023/12/07 02:42:39;;;;;;;4.80;4.40;;;14.50;58.60;15.50;101188.00;;;;5013531;28;20182;-43
2023/12/07 02:45:06;;;;;;;4.80;4.40;;;14.50;58.60;15.40;101190.00;;;;5048229;28;20273;-42
2023/12/07 02:47:31;;;;;;;4.67;4.27;;;14.50;58.60;15.40;101188.00;;;;5049732;28;20711;-43
2023/12/07 02:49:57;;;;;;;4.57;4.13;;;14.50;58.60;15.40;101191.00;;;;5033121;28;20269;-43
2023/12/07 02:52:23;;;;;;;4.50;4.10;;;14.50;58.70;15.40;101187.00;;;;5050500;28;20247;-42
2023/12/07 02:54:48;;;;;;;4.50;4.10;;;14.40;58.60;15.40;101188.00;;;;5050384;28;20202;-42
2023/12/07 02:57:14;;;;;;;5.10;4.60;;;14.40;58.50;15.40;101184.00;;;;5050286;28;20206;-43
2023/12/07 02:59:40;;;;;;;4.10;3.80;;;14.40;58.60;15.30;101179.00;;;;5050344;28;20232;-43
2023/12/07 03:02:06;;;;;;;4.27;3.87;;;14.40;58.60;15.30;101181.00;;;;5050170;28;20194;-43
2023/12/07 03:04:32;;;;;;;4.30;4.00;;;14.40;58.60;15.30;101176.00;;;;5044836;28;20209;-42
2023/12/07 03:06:58;;;;;;;4.40;4.00;;;14.40;58.70;15.30;101168.00;;;;5049235;28;20251;-43
2023/12/07 03:09:24;;;;;;;4.53;4.07;;;14.40;58.70;15.30;101172.00;;;;5048992;28;20248;-43
2023/12/07 03:11:50;;;;;;;4.50;4.10;;;14.40;58.70;15.30;101157.00;;;;5050251;28;20182;-43
2023/12/07 03:14:16;;;;;;;4.43;4.13;;;14.30;58.60;15.30;101162.00;;;;5048265;28;20201;-43
2023/12/07 03:16:42;;;;;;;4.70;4.30;;;14.30;58.60;15.30;101150.00;;;;5046002;28;20233;-44
2023/12/07 03:19:07;;;;;;;4.87;4.47;;;14.30;58.70;15.20;101171.00;;;;5050224;28;20289;-43
2023/12/07 03:21:33;;;;;;;4.80;4.40;;;14.30;58.60;15.20;101170.00;;;;5050101;28;20186;-42
2023/12/07 03:23:59;;;;;;;5.10;4.60;;;14.30;58.80;15.30;101162.00;;;;5049598;28;20250;-43
2023/12/07 03:26:25;;;;;;;4.77;4.27;;;14.30;58.80;15.10;101165.00;;;;5048356;28;20271;-42
2023/12/07 03:28:51;;;;;;;5.00;4.60;;;14.30;58.80;15.20;101166.00;;;;5050007;28;20182;-42
2023/12/07 03:31:16;;;;;;;4.90;4.40;;;14.20;58.80;15.20;101169.00;;;;5048374;28;20200;-44
2023/12/07 03:33:42;;;;;;;4.70;4.30;;;14.20;58.80;15.20;101167.00;;;;5043332;28;20558;-42
2023/12/07 03:36:11;;;;;;;4.70;4.30;;;14.20;58.80;15.20;101158.00;;;;5049025;28;20222;-42
2023/12/07 03:38:37;;;;;;;4.73;4.33;;;14.20;58.90;15.20;101164.00;;;;5049732;28;20174;-42
2023/12/07 03:41:03;;;;;;;4.57;4.17;;;14.20;58.90;15.20;101159.00;;;;5049545;28;20190;-42
2023/12/07 03:43:29;;;;;;;4.80;4.40;;;14.20;58.90;15.20;101159.00;;;;5048648;28;20181;-42
2023/12/07 03:45:55;;;;;;;4.50;4.20;;;14.20;58.80;15.20;101167.00;;;;5048580;28;20293;-42
2023/12/07 03:48:20;;;;;;;4.67;4.27;;;14.20;58.80;15.20;101156.00;;;;5048479;28;20558;-42
2023/12/07 03:50:46;;;;;;;4.90;4.50;;;14.20;58.90;15.10;101166.00;;;;5050076;28;20632;-43
2023/12/07 03:53:12;;;;;;;4.63;4.23;;;14.10;58.90;15.10;101159.00;;;;5049329;28;20193;-42
2023/12/07 03:55:38;;;;;;;4.80;4.40;;;14.10;58.90;15.10;101170.00;;;;5049597;28;20214;-43
2023/12/07 03:58:04;;;;;;;4.60;4.20;;;14.10;58.90;15.10;101151.00;;;;5049425;28;20647;-42
2023/12/07 04:00:32;;;;;;;5.03;4.53;;;14.10;58.90;15.10;101159.00;;;;5048150;28;20641;-42
2023/12/07 04:02:58;;;;;;;4.67;4.27;;;14.10;58.90;15.10;101157.00;;;;5044872;28;20604;-43
2023/12/07 04:05:24;;;;;;;4.50;4.10;;;14.10;59.00;15.10;101157.00;;;;5049489;28;20297;-43
2023/12/07 04:07:49;;;;;;;4.90;4.50;;;14.10;58.90;15.10;101164.00;;;;5047475;28;20261;-43
2023/12/07 04:10:15;;;;;;;5.10;4.70;;;14.10;59.00;15.00;101164.00;;;;5049824;28;20190;-43
2023/12/07 04:12:41;;;;;;;5.97;4.90;;;14.10;59.00;15.00;101163.00;;;;5049888;28;20174;-42
2023/12/07 04:15:07;;;;;;;4.90;4.40;;;14.10;59.00;15.00;101164.00;;;;5046973;28;20202;-42
2023/12/07 04:17:33;;;;;;;5.17;4.77;;;14.00;59.00;15.00;101164.00;;;;5037027;28;20683;-43
2023/12/07 04:19:59;;;;;;;5.00;4.53;;;14.00;59.00;15.00;101165.00;;;;5047403;28;20179;-42
2023/12/07 04:22:24;;;;;;;5.13;4.67;;;14.00;59.00;15.00;101163.00;;;;5042877;28;20244;-42
2023/12/07 04:24:50;;;;;;;5.13;4.70;;;14.00;59.00;15.00;101166.00;;;;5042128;28;20263;-42
2023/12/07 04:27:16;;;;;;;4.83;4.43;;;14.00;59.00;15.00;101169.00;;;;5044887;28;20264;-42
2023/12/07 04:29:41;;;;;;;7.50;4.90;;;14.00;59.30;15.00;101164.00;;;;5043945;28;20688;-42
2023/12/07 04:32:07;;;;;;;5.37;4.87;;;14.00;59.90;15.00;101165.00;;;;5048728;28;20270;-42
2023/12/07 04:34:33;;;;;;;5.30;4.80;;;13.90;59.70;14.90;101173.00;;;;5046380;28;20252;-42
2023/12/07 04:36:59;;;;;;;5.60;5.10;;;14.00;59.40;14.90;101170.00;;;;5015262;28;20241;-42
2023/12/07 04:39:25;;;;;;;5.97;5.47;;;14.00;59.30;14.90;101180.00;;;;5047333;28;20316;-42
2023/12/07 04:41:51;;;;;;;5.93;5.23;;;13.90;59.20;14.90;101178.00;;;;5040030;28;20194;-42
2023/12/07 04:44:17;;;;;;;6.67;6.00;;;13.90;59.10;14.90;101175.00;;;;5048763;28;20179;-41
2023/12/07 04:46:42;;;;;;;6.73;6.13;;;13.90;59.00;14.90;101173.00;;;;5049376;28;20190;-42
2023/12/07 04:49:08;;;;;;;6.80;6.10;;;13.80;58.90;14.80;101176.00;;;;5048066;28;20657;-42
2023/12/07 04:51:34;;;;;;;6.90;6.30;;;13.90;59.00;14.80;101180.00;;;;5049235;28;20190;-43
2023/12/07 04:54:00;;;;;;;8.07;7.27;;;13.80;58.80;14.80;101174.00;;;;5049045;28;20182;-42
2023/12/07 04:56:25;;;;;;;7.37;6.57;;;13.80;58.70;14.80;101174.00;;;;5048867;28;20673;-42
2023/12/07 04:58:51;;;;;;;7.10;6.50;;;13.80;58.80;14.70;101177.00;;;;5049379;28;20232;-42
2023/12/07 05:01:18;;;;;;;7.97;7.17;;;13.80;58.80;14.70;101181.00;;;;5048710;28;20194;-41
2023/12/07 05:03:45;;;;;;;7.57;6.87;;;13.80;58.70;14.70;101164.00;;;;5048727;28;20717;-42
2023/12/07 05:06:11;;;;;;;7.73;7.03;;;13.70;58.70;14.70;101184.00;;;;5048295;28;20210;-43
2023/12/07 05:08:39;;;;;;;7.93;7.20;;;13.70;58.70;14.70;101193.00;;;;5049194;28;20178;-42
2023/12/07 05:11:06;;;;;;;8.20;7.40;;;13.70;58.60;14.70;101194.00;;;;5048714;28;20205;-42
2023/12/07 05:13:33;;;;;;;8.53;7.63;;;13.70;58.50;14.70;101197.00;;;;5048815;28;20194;-41
2023/12/07 05:15:59;;;;;;;8.33;7.40;;;13.70;58.50;14.70;101207.00;;;;5047957;28;20210;-42
2023/12/07 05:18:25;;;;;;;8.23;7.43;;;13.70;58.60;14.70;101198.00;;;;5048424;28;20220;-42
2023/12/07 05:20:51;;;;;;;9.97;7.47;;;13.70;58.60;14.70;101204.00;;;;5047495;28;20186;-42
2023/12/07 05:23:17;;;;;;;8.30;7.20;;;13.70;58.70;14.70;101212.00;;;;5048395;28;20178;-42
2023/12/07 05:25:43;;;;;;;7.67;6.83;;;13.70;58.70;14.60;101210.00;;;;5048727;28;20202;-42
2023/12/07 05:28:09;;;;;;;8.53;7.67;;;13.70;58.70;14.60;101206.00;;;;5048928;28;20189;-42
2023/12/07 05:30:36;;;;;;;8.13;7.43;;;13.70;58.80;14.60;101213.00;;;;5048986;28;20182;-42
2023/12/07 05:33:02;;;;;;;7.53;6.93;;;13.70;58.70;14.70;101220.00;;;;5040603;28;20182;-42
2023/12/07 05:35:28;;;;;;;7.93;7.17;;;13.60;58.80;14.60;101209.00;;;;5041431;28;20257;-42
2023/12/07 05:37:53;;;;;;;7.60;6.87;;;13.60;58.90;14.60;101209.00;;;;5049003;28;20190;-42
2023/12/07 05:40:19;;;;;;;7.57;6.87;;;13.70;59.10;14.60;101218.00;;;;5048752;28;20170;-42
2023/12/07 05:42:49;;;;;;;7.70;6.77;;;13.70;59.10;14.60;101221.00;;;;5048571;28;20185;-43
2023/12/07 05:45:15;;;;;;;8.60;6.10;;;13.70;59.10;14.60;101219.00;;;;5048042;28;20191;-42
2023/12/07 05:47:40;;;;;;;7.17;6.43;;;13.70;59.10;14.60;101211.00;;;;5049016;28;20185;-43
2023/12/07 05:50:07;;;;;;;6.73;6.13;;;13.60;59.20;14.60;101222.00;;;;5043136;28;20178;-43
2023/12/07 05:52:33;;;;;;;7.00;6.30;;;13.70;59.20;14.60;101216.00;;;;5044527;28;20274;-46
2023/12/07 05:54:59;;;;;;;6.80;6.20;;;13.60;59.10;14.60;101214.00;;;;5049670;28;20680;-42
2023/12/07 05:57:24;;;;;;;6.90;6.17;;;13.60;59.10;14.60;101214.00;;;;5052363;28;20620;-42
2023/12/07 05:59:50;;;;;;;7.50;6.77;;;13.60;59.10;14.50;101206.00;;;;5052290;28;20689;-42
2023/12/07 06:02:16;;;;;;;6.63;6.03;;;13.60;59.10;14.60;101200.00;;;;5041124;28;20243;-43
2023/12/07 06:04:42;;;;;;;7.10;6.40;;;13.70;59.10;14.50;101200.00;;;;5051331;28;20194;-43
2023/12/07 06:07:08;;;;;;;7.00;6.30;;;13.60;59.10;14.50;101205.00;;;;5050704;28;20182;-42
2023/12/07 06:09:34;;;;;;;6.90;6.30;;;13.60;59.00;14.50;101211.00;;;;5051823;28;20186;-43
2023/12/07 06:11:59;;;;;;;7.50;6.70;;;13.60;59.10;14.50;101115.00;;;;5051913;28;20182;-46
2023/12/07 06:14:25;;;;;;;6.57;5.97;;;13.60;59.10;14.50;101200.00;;;;5050886;28;20670;-42
2023/12/07 06:16:51;;;;;;;6.73;5.70;;;13.60;59.00;14.50;101196.00;;;;5051994;28;20206;-44
2023/12/07 06:19:17;;;;;;;6.40;5.80;;;13.60;59.10;14.50;101193.00;;;;5050850;28;20183;-42
2023/12/07 06:21:44;;;;;;;6.47;5.80;;;13.60;59.00;14.50;101192.00;;;;5052201;28;20186;-42
2023/12/07 06:24:10;;;;;;;6.43;5.47;;;13.60;59.20;14.50;101194.00;;;;5051373;28;20261;-42
2023/12/07 06:26:36;;;;;;;6.23;5.50;;;13.60;59.20;14.50;101190.00;;;;5051664;28;20343;-42
2023/12/07 06:29:02;;;;;;;5.73;5.23;;;13.60;59.10;14.60;101175.00;;;;5050534;28;20201;-41
2023/12/07 06:31:27;;;;;;;5.60;5.00;;;13.70;59.20;14.60;101190.00;;;;5051676;28;20214;-42
2023/12/07 06:33:53;;;;;;;5.70;5.20;;;13.70;59.10;14.60;101193.00;;;;5050616;28;20182;-42
2023/12/07 06:36:22;;;;;;;5.03;4.50;;;13.90;59.20;14.70;101175.00;;;;5051346;28;20244;-42
2023/12/07 06:38:48;;;;;;;4.83;4.37;;;13.90;59.10;14.80;101175.00;;;;5051043;28;20201;-42
2023/12/07 06:41:15;;;;;;;4.60;4.20;;;14.10;59.00;14.80;101181.00;;;;5050392;28;20644;-42
2023/12/07 06:43:41;;;;;;;5.50;4.30;;;14.20;58.90;14.90;101177.00;;;;5051734;28;20174;-42
2023/12/07 06:46:07;;;;;;;4.90;4.00;;;14.40;58.80;15.00;101172.00;;;;5050175;28;20225;-41
2023/12/07 06:48:33;;;;;;;5.10;4.10;;;14.50;58.60;15.10;101173.00;;;;5051768;28;20186;-42
2023/12/07 06:50:59;;;;;;;4.50;4.10;;;14.70;58.70;15.20;101167.00;;;;5051318;28;20182;-42
2023/12/07 06:53:25;;;;;;;4.20;3.80;;;14.80;58.40;15.30;101166.00;;;;5051220;28;20181;-42
2023/12/07 06:55:50;;;;;;;3.80;3.50;;;14.90;58.40;15.50;101164.00;;;;5051107;28;20216;-42
2023/12/07 06:58:16;;;;;;;4.00;3.60;;;15.10;58.40;15.60;101179.00;;;;5051241;28;20170;-42
2023/12/07 07:00:42;;;;;;;3.97;3.60;;;15.20;58.20;15.70;101176.00;;;;5051220;28;20790;-45
2023/12/07 07:03:07;;;;;;;3.80;3.50;;;15.30;58.20;15.80;101178.00;;;;5050855;28;20202;-42
2023/12/07 07:05:33;;;;;;;4.03;3.57;;;15.40;58.10;15.90;101175.00;;;;5050234;28;20294;-42
2023/12/07 07:07:59;;;;;;;3.80;3.50;;;15.40;58.00;15.90;101175.00;;;;5051274;28;20203;-42
2023/12/07 07:10:24;;;;;;;4.10;3.70;;;15.50;58.00;16.00;101161.00;;;;5050669;28;20181;-42
2023/12/07 07:12:50;;;;;;;3.30;3.00;;;15.60;58.10;16.10;101177.00;;;;5050998;28;20208;-42
2023/12/07 07:15:16;;;;;;;3.80;3.40;;;15.60;58.10;16.10;101160.00;;;;5043862;28;20241;-42
2023/12/07 07:17:42;;;;;;;3.40;3.10;;;15.70;58.20;16.20;101169.00;;;;5049296;28;20265;-42
2023/12/07 07:20:08;;;;;;;3.30;3.00;;;15.70;58.20;16.30;101165.00;;;;5050535;28;20192;-42
2023/12/07 07:22:34;;;;;;;3.30;3.00;;;15.80;58.20;16.30;101169.00;;;;5051143;28;20379;-42
2023/12/07 07:25:00;;;;;;;3.37;3.07;;;15.70;58.20;16.40;101175.00;;;;5049090;28;20190;-42
2023/12/07 07:27:26;;;;;;;3.40;3.10;;;15.70;58.20;16.40;101180.00;;;;5050335;28;20172;-42
2023/12/07 07:29:52;;;;;;;3.17;2.97;;;15.80;58.30;16.40;101165.00;;;;5050868;28;20604;-42
2023/12/07 07:32:17;;;;;;;3.77;3.20;;;15.80;58.30;16.40;101183.00;;;;5049139;28;20186;-42
2023/12/07 07:34:43;;;;;;;3.53;3.23;;;15.80;58.40;16.50;101169.00;;;;5050120;28;20202;-42
2023/12/07 07:37:09;;;;;;;3.40;3.10;;;15.80;58.50;16.50;101183.00;;;;5063949;28;20226;-42
2023/12/07 07:39:35;;;;;;;3.20;3.00;;;15.90;58.50;16.50;101184.00;;;;5050883;28;20732;-42
2023/12/07 07:42:00;;;;;;;3.47;3.00;;;15.90;58.60;16.50;101190.00;;;;5050771;28;20198;-42
2023/12/07 07:44:26;;;;;;;3.30;3.00;;;15.80;58.50;16.60;101184.00;;;;5043961;28;20170;-41
2023/12/07 07:46:52;;;;;;;3.10;2.90;;;15.90;58.70;16.60;101178.00;;;;5049319;28;20189;-41
2023/12/07 07:49:18;;;;;;;3.20;3.00;;;15.90;58.60;16.60;101193.00;;;;5050396;28;20258;-42
2023/12/07 07:51:43;;;;;;;3.00;2.80;;;15.90;58.70;16.60;101177.00;;;;5049460;28;20180;-42
2023/12/07 07:54:09;;;;;;;3.23;3.00;;;15.90;58.70;16.60;101177.00;;;;5049002;28;20183;-42
2023/12/07 07:56:35;;;;;;;3.40;3.10;;;15.90;58.70;16.60;101186.00;;;;5049544;28;20211;-42
2023/12/07 07:59:01;;;;;;;2.80;2.60;;;15.90;58.70;16.60;101175.00;;;;5049788;28;20180;-44
2023/12/07 08:01:27;;;;;;;3.07;2.83;;;15.90;58.70;16.70;101173.00;;;;5049627;28;20191;-42
2023/12/07 08:03:52;;;;;;;3.23;2.93;;;16.00;58.90;16.70;101170.00;;;;5044515;28;20185;-43
2023/12/07 08:06:18;;;;;;;2.93;2.73;;;15.90;58.80;16.70;101176.00;;;;5042597;28;20321;-43
2023/12/07 08:08:44;;;;;;;3.20;2.90;;;15.90;58.90;16.70;101173.00;;;;5046814;28;20315;-42
2023/12/07 08:11:10;;;;;;;3.40;3.10;;;15.90;59.00;16.70;101171.00;;;;5048758;28;20182;-42
2023/12/07 08:13:35;;;;;;;3.20;2.90;;;15.90;58.90;16.70;101181.00;;;;5048811;28;20189;-50
2023/12/07 08:16:01;;;;;;;2.83;2.63;;;16.00;59.00;16.70;101179.00;;;;5047715;28;20195;-43
2023/12/07 08:18:27;;;;;;;2.83;2.63;;;16.00;58.90;16.70;101190.00;;;;5049428;28;20183;-42
2023/12/07 08:20:53;;;;;;;3.00;2.80;;;16.00;58.90;16.70;101196.00;;;;5049301;28;20234;-42
2023/12/07 08:23:18;;;;;;;2.93;2.73;;;16.00;58.90;16.70;101184.00;;;;5049386;28;20796;-42
2023/12/07 08:25:44;;;;;;;3.23;2.97;;;16.00;59.00;16.70;101190.00;;;;5049420;28;20205;-42
2023/12/07 08:28:10;;;;;;;3.30;3.00;;;16.00;59.10;16.80;101186.00;;;;5049123;28;20182;-42
2023/12/07 08:30:36;;;;;;;3.20;2.90;;;16.00;59.00;16.80;101186.00;;;;5049658;28;20200;-42
2023/12/07 08:33:02;;;;;;;2.90;2.70;;;16.10;59.10;16.80;101198.00;;;;5048122;28;20683;-43
2023/12/07 08:35:28;;;;;;;3.00;2.70;;;16.10;59.20;16.80;101188.00;;;;5049284;28;20207;-42
2023/12/07 08:37:54;;;;;;;2.73;2.53;;;16.10;59.50;16.80;101189.00;;;;5049048;28;20181;-42
2023/12/07 08:40:19;;;;;;;3.10;2.80;;;16.10;59.70;16.80;101190.00;;;;5048991;28;20190;-41
2023/12/07 08:42:46;;;;;;;4.23;2.77;;;16.10;59.90;16.80;101185.00;;;;5050003;28;20224;-42
2023/12/07 08:45:13;;;;;;;4.30;2.70;;;16.10;59.90;16.80;101196.00;;;;5049521;28;20249;-42
2023/12/07 08:47:39;;;;;;;2.80;2.60;;;16.10;59.90;16.80;101196.00;;;;5049800;28;20237;-42
2023/12/07 08:50:07;;;;;;;2.93;2.70;;;16.10;59.80;16.80;101206.00;;;;5049774;28;20174;-41
2023/12/07 08:52:33;;;;;;;3.27;2.70;;;16.10;59.90;16.80;101198.00;;;;5049357;28;20706;-41
2023/12/07 08:54:59;;;;;;;3.03;2.60;;;16.10;59.90;16.80;101204.00;;;;5049196;28;20199;-42
2023/12/07 08:57:25;;;;;;;2.93;2.63;;;16.10;59.80;16.80;101195.00;;;;5047565;28;20210;-42
2023/12/07 08:59:50;;;;;;;3.27;2.97;;;16.00;59.80;16.80;101205.00;;;;5048033;28;20176;-43
2023/12/07 09:02:16;;;;;;;2.73;2.53;;;16.10;60.30;16.80;101207.00;;;;5047483;28;20200;-42
2023/12/07 09:04:42;;;;;;;2.80;2.60;;;16.10;60.50;16.80;101198.00;;;;5044537;28;20196;-41
2023/12/07 09:07:09;;;;;;;2.83;2.63;;;16.10;60.50;16.80;101215.00;;;;5045506;28;20317;-42
2023/12/07 09:09:34;;;;;;;6.07;2.93;;;16.10;60.90;16.90;101219.00;;;;5047458;28;20654;-42
2023/12/07 09:12:00;;;;;;;6.53;2.87;;;16.10;61.20;16.90;101209.00;;;;5048364;28;20186;-42
2023/12/07 09:14:26;;;;;;;3.37;2.90;;;16.10;61.30;16.90;101196.00;;;;5048278;28;20189;-42
2023/12/07 09:16:52;;;;;;;3.97;2.73;;;16.10;60.90;16.90;101204.00;;;;5048534;28;20201;-42
2023/12/07 09:19:18;;;;;;;2.73;2.50;;;16.10;60.90;16.90;101209.00;;;;5048619;28;20183;-44
2023/12/07 09:21:43;;;;;;;5.90;2.70;;;16.10;60.80;16.90;101205.00;;;;5048711;28;20192;-44
2023/12/07 09:24:09;;;;;;;3.53;2.90;;;16.10;60.70;16.90;101217.00;;;;5048636;28;20178;-42
2023/12/07 09:26:36;;;;;;;7.73;2.87;;;16.10;60.50;16.90;101218.00;;;;5047928;28;20209;-43
2023/12/07 09:29:02;;;;;;;6.10;2.80;;;16.20;60.50;16.90;101203.00;;;;5048862;28;20397;-43
2023/12/07 09:31:28;;;;;;;3.13;2.50;;;16.20;60.40;16.90;101205.00;;;;5048481;28;20244;-42
2023/12/07 09:33:54;;;;;;;4.03;2.60;;;16.10;60.30;16.90;101200.00;;;;5048815;28;20180;-42
2023/12/07 09:36:21;;;;;;;4.67;2.77;;;16.20;60.40;16.90;101115.00;;;;5048448;28;20212;-42
2023/12/07 09:38:47;;;;;;;5.07;2.80;;;16.10;60.30;16.90;101188.00;;;;5048200;28;20167;-42
2023/12/07 09:41:12;;;;;;;2.97;2.23;;;16.10;60.40;16.90;101194.00;;;;5048541;28;20652;-41
2023/12/07 09:43:38;;;;;;;2.80;2.50;;;16.10;60.60;16.90;101203.00;;;;5048375;28;20190;-42
2023/12/07 09:46:06;;;;;;;9.97;2.93;;;16.10;60.90;16.90;101205.00;;;;5047244;28;20274;-42
2023/12/07 09:48:31;;;;;;;6.63;3.00;;;16.10;60.90;16.90;101200.00;;;;5040008;28;20181;-43
2023/12/07 09:50:57;;;;;;;4.73;2.70;;;16.10;61.10;16.90;101200.00;;;;5048599;28;20253;-42
2023/12/07 09:53:23;;;;;;;5.23;2.90;;;16.10;61.40;16.90;101180.00;;;;5030662;28;20202;-42
2023/12/07 09:55:49;;;;;;;3.80;2.70;;;16.10;61.10;16.90;101173.00;;;;5047276;28;20286;-42
2023/12/07 09:58:14;;;;;;;4.57;3.13;;;16.10;61.10;16.90;101169.00;;;;5047768;28;20177;-42
2023/12/07 10:00:40;;;;;;;4.13;2.50;;;16.20;61.00;16.90;101169.00;;;;5048419;28;20203;-42
2023/12/07 10:03:09;;;;;;;5.63;2.60;;;16.10;60.90;16.90;101170.00;;;;5046320;28;20242;-43
2023/12/07 10:05:55;;;;;;;5.40;2.80;;;16.20;61.10;16.90;101176.00;;;;5048194;28;20273;-42
2023/12/07 10:08:30;;;;;;;3.93;2.70;;;16.20;61.10;16.90;101167.00;;;;5032975;28;20537;-41
2023/12/07 10:11:07;;;;;;;4.33;2.70;;;16.10;60.90;16.90;101159.00;;;;5047305;28;20292;-42
2023/12/07 10:13:34;;;;;;;3.97;2.87;;;16.10;61.00;16.90;101168.00;;;;5041222;28;20182;-42
2023/12/07 10:16:10;;;;;;;7.47;2.90;;;16.10;61.40;16.90;101182.00;;;;5047441;28;20210;-42
2023/12/07 10:18:36;;;;;;;5.03;2.50;;;16.10;61.60;16.90;101175.00;;;;5041545;28;20257;-42
2023/12/07 10:21:03;;;;;;;4.20;2.67;;;16.10;62.30;16.90;101177.00;;;;5047273;28;20173;-42
2023/12/07 10:23:31;;;;;;;5.63;2.73;;;16.10;61.60;16.90;101173.00;;;;5046506;28;20171;-42
2023/12/07 10:25:57;;;;;;;7.97;3.10;;;16.10;61.70;16.90;101159.00;;;;5047767;28;20351;-43
2023/12/07 10:28:23;;;;;;;4.77;2.83;;;16.20;61.90;16.90;101153.00;;;;5029571;28;20182;-42
2023/12/07 10:30:49;;;;;;;4.77;2.77;;;16.10;61.50;16.90;101150.00;;;;5029736;28;20192;-43
2023/12/07 10:33:15;;;;;;;5.23;2.57;;;16.10;61.50;16.90;101148.00;;;;5028281;28;20231;-43
2023/12/07 10:35:43;;;;;;;5.83;2.83;;;16.10;61.50;16.90;101146.00;;;;5046866;28;20770;-43
2023/12/07 10:38:09;;;;;;;6.20;3.20;;;16.10;61.50;16.90;101140.00;;;;5047415;28;20553;-42
2023/12/07 10:40:35;;;;;;;12.00;5.73;;;16.10;61.70;16.90;101136.00;;;;5048042;28;20256;-42
2023/12/07 10:43:06;;;;;;;10.87;6.07;;;16.20;63.60;16.90;101145.00;;;;5051512;28;20170;-43